sensor_id;sensor_type;location;lat;lon;timestamp;P1;durP1;ratioP1;P2;durP2;ratioP2
66264;SDS011;53055;44.648;21.148;2023-05-10T00:01:39;10.43;;;5.03;;
66264;SDS011;53055;44.648;21.148;2023-05-10T00:04:05;7.35;;;5.40;;
66264;SDS011;53055;44.648;21.148;2023-05-10T00:06:31;9.10;;;5.63;;
66264;SDS011;53055;44.648;21.148;2023-05-10T00:08:57;7.75;;;5.35;;
66264;SDS011;53055;44.648;21.148;2023-05-10T00:11:23;8.85;;;5.03;;
66264;SDS011;53055;44.648;21.148;2023-05-10T00:13:49;8.13;;;5.97;;
66264;SDS011;53055;44.648;21.148;2023-05-10T00:16:15;8.50;;;5.50;;
66264;SDS011;53055;44.648;21.148;2023-05-10T00:18:41;8.27;;;5.78;;
66264;SDS011;53055;44.648;21.148;2023-05-10T00:21:07;9.65;;;5.70;;
66264;SDS011;53055;44.648;21.148;2023-05-10T00:23:33;8.00;;;4.68;;
66264;SDS011;53055;44.648;21.148;2023-05-10T00:25:59;7.82;;;5.00;;
66264;SDS011;53055;44.648;21.148;2023-05-10T00:28:26;7.63;;;5.32;;
66264;SDS011;53055;44.648;21.148;2023-05-10T00:30:53;7.93;;;5.53;;
66264;SDS011;53055;44.648;21.148;2023-05-10T00:33:20;8.52;;;5.50;;
66264;SDS011;53055;44.648;21.148;2023-05-10T00:35:46;8.05;;;5.20;;
66264;SDS011;53055;44.648;21.148;2023-05-10T00:38:12;8.60;;;6.03;;
66264;SDS011;53055;44.648;21.148;2023-05-10T00:40:39;8.48;;;5.57;;
66264;SDS011;53055;44.648;21.148;2023-05-10T00:43:05;9.32;;;5.30;;
66264;SDS011;53055;44.648;21.148;2023-05-10T00:45:32;8.23;;;5.55;;
66264;SDS011;53055;44.648;21.148;2023-05-10T00:48:02;7.88;;;5.85;;
66264;SDS011;53055;44.648;21.148;2023-05-10T00:50:28;8.52;;;5.28;;
66264;SDS011;53055;44.648;21.148;2023-05-10T00:52:54;8.15;;;5.70;;
66264;SDS011;53055;44.648;21.148;2023-05-10T00:55:21;8.32;;;5.55;;
66264;SDS011;53055;44.648;21.148;2023-05-10T00:57:47;8.30;;;5.50;;
66264;SDS011;53055;44.648;21.148;2023-05-10T01:00:13;7.97;;;5.68;;
66264;SDS011;53055;44.648;21.148;2023-05-10T01:02:43;7.28;;;5.22;;
66264;SDS011;53055;44.648;21.148;2023-05-10T01:05:10;7.97;;;5.70;;
66264;SDS011;53055;44.648;21.148;2023-05-10T01:07:36;9.93;;;6.05;;
66264;SDS011;53055;44.648;21.148;2023-05-10T01:10:02;9.05;;;5.30;;
66264;SDS011;53055;44.648;21.148;2023-05-10T01:12:28;7.53;;;5.38;;
66264;SDS011;53055;44.648;21.148;2023-05-10T01:14:55;8.02;;;5.78;;
66264;SDS011;53055;44.648;21.148;2023-05-10T01:17:21;9.45;;;5.70;;
66264;SDS011;53055;44.648;21.148;2023-05-10T01:19:48;10.38;;;5.88;;
66264;SDS011;53055;44.648;21.148;2023-05-10T01:22:25;7.82;;;5.70;;
66264;SDS011;53055;44.648;21.148;2023-05-10T01:27:34;7.95;;;5.10;;
66264;SDS011;53055;44.648;21.148;2023-05-10T01:35:10;6.55;;;4.95;;
66264;SDS011;53055;44.648;21.148;2023-05-10T01:37:42;7.43;;;5.40;;
66264;SDS011;53055;44.648;21.148;2023-05-10T01:43:05;9.73;;;5.30;;
66264;SDS011;53055;44.648;21.148;2023-05-10T01:45:37;8.45;;;5.15;;
66264;SDS011;53055;44.648;21.148;2023-05-10T01:48:05;9.73;;;5.15;;
66264;SDS011;53055;44.648;21.148;2023-05-10T01:50:32;8.25;;;5.28;;
66264;SDS011;53055;44.648;21.148;2023-05-10T01:53:00;7.53;;;5.15;;
66264;SDS011;53055;44.648;21.148;2023-05-10T01:55:28;7.57;;;5.20;;
66264;SDS011;53055;44.648;21.148;2023-05-10T01:58:03;7.88;;;4.78;;
66264;SDS011;53055;44.648;21.148;2023-05-10T02:00:30;8.02;;;5.30;;
66264;SDS011;53055;44.648;21.148;2023-05-10T02:02:56;9.40;;;5.50;;
66264;SDS011;53055;44.648;21.148;2023-05-10T02:05:23;8.23;;;5.03;;
66264;SDS011;53055;44.648;21.148;2023-05-10T02:07:50;8.25;;;5.35;;
66264;SDS011;53055;44.648;21.148;2023-05-10T02:10:17;8.30;;;5.45;;
66264;SDS011;53055;44.648;21.148;2023-05-10T02:12:44;8.15;;;5.65;;
66264;SDS011;53055;44.648;21.148;2023-05-10T02:15:11;9.10;;;6.32;;
66264;SDS011;53055;44.648;21.148;2023-05-10T02:17:38;9.20;;;5.88;;
66264;SDS011;53055;44.648;21.148;2023-05-10T02:20:05;8.85;;;5.85;;
66264;SDS011;53055;44.648;21.148;2023-05-10T02:22:32;7.63;;;5.85;;
66264;SDS011;53055;44.648;21.148;2023-05-10T02:24:59;8.07;;;5.78;;
66264;SDS011;53055;44.648;21.148;2023-05-10T02:27:27;7.72;;;5.97;;
66264;SDS011;53055;44.648;21.148;2023-05-10T02:29:53;9.10;;;6.07;;
66264;SDS011;53055;44.648;21.148;2023-05-10T02:32:20;7.00;;;5.22;;
66264;SDS011;53055;44.648;21.148;2023-05-10T02:34:47;8.68;;;5.70;;
66264;SDS011;53055;44.648;21.148;2023-05-10T02:37:17;7.97;;;6.05;;
66264;SDS011;53055;44.648;21.148;2023-05-10T02:39:45;8.93;;;5.53;;
66264;SDS011;53055;44.648;21.148;2023-05-10T02:42:13;8.00;;;5.90;;
66264;SDS011;53055;44.648;21.148;2023-05-10T02:44:40;8.35;;;6.18;;
66264;SDS011;53055;44.648;21.148;2023-05-10T02:47:07;10.70;;;5.80;;
66264;SDS011;53055;44.648;21.148;2023-05-10T02:49:33;8.32;;;5.55;;
66264;SDS011;53055;44.648;21.148;2023-05-10T02:52:00;7.97;;;5.72;;
66264;SDS011;53055;44.648;21.148;2023-05-10T02:54:30;13.15;;;6.75;;
66264;SDS011;53055;44.648;21.148;2023-05-10T02:56:58;9.02;;;6.32;;
66264;SDS011;53055;44.648;21.148;2023-05-10T02:59:25;9.45;;;5.63;;
66264;SDS011;53055;44.648;21.148;2023-05-10T03:01:51;7.72;;;5.90;;
66264;SDS011;53055;44.648;21.148;2023-05-10T03:04:18;8.40;;;5.93;;
66264;SDS011;53055;44.648;21.148;2023-05-10T03:06:44;8.77;;;6.70;;
66264;SDS011;53055;44.648;21.148;2023-05-10T03:09:10;9.25;;;6.18;;
66264;SDS011;53055;44.648;21.148;2023-05-10T03:11:47;9.75;;;6.70;;
66264;SDS011;53055;44.648;21.148;2023-05-10T03:16:46;9.35;;;6.28;;
66264;SDS011;53055;44.648;21.148;2023-05-10T03:19:17;9.00;;;6.30;;
66264;SDS011;53055;44.648;21.148;2023-05-10T03:21:49;8.77;;;6.03;;
66264;SDS011;53055;44.648;21.148;2023-05-10T03:24:16;8.00;;;5.90;;
66264;SDS011;53055;44.648;21.148;2023-05-10T03:26:43;9.10;;;6.07;;
66264;SDS011;53055;44.648;21.148;2023-05-10T03:29:11;9.88;;;6.60;;
66264;SDS011;53055;44.648;21.148;2023-05-10T03:31:38;8.43;;;6.65;;
66264;SDS011;53055;44.648;21.148;2023-05-10T03:34:04;8.15;;;6.38;;
66264;SDS011;53055;44.648;21.148;2023-05-10T03:36:31;8.60;;;6.38;;
66264;SDS011;53055;44.648;21.148;2023-05-10T03:38:57;9.00;;;6.93;;
66264;SDS011;53055;44.648;21.148;2023-05-10T03:41:23;11.40;;;6.65;;
66264;SDS011;53055;44.648;21.148;2023-05-10T03:43:50;7.90;;;6.65;;
66264;SDS011;53055;44.648;21.148;2023-05-10T03:46:16;7.97;;;6.50;;
66264;SDS011;53055;44.648;21.148;2023-05-10T03:48:42;8.80;;;6.13;;
66264;SDS011;53055;44.648;21.148;2023-05-10T03:51:08;9.02;;;6.20;;
66264;SDS011;53055;44.648;21.148;2023-05-10T03:53:34;8.30;;;6.47;;
66264;SDS011;53055;44.648;21.148;2023-05-10T03:56:00;10.30;;;6.38;;
66264;SDS011;53055;44.648;21.148;2023-05-10T03:58:26;8.75;;;5.50;;
66264;SDS011;53055;44.648;21.148;2023-05-10T04:00:52;8.90;;;5.63;;
66264;SDS011;53055;44.648;21.148;2023-05-10T04:03:18;7.05;;;5.65;;
66264;SDS011;53055;44.648;21.148;2023-05-10T04:05:45;8.70;;;5.97;;
66264;SDS011;53055;44.648;21.148;2023-05-10T04:08:11;8.38;;;5.63;;
66264;SDS011;53055;44.648;21.148;2023-05-10T04:10:37;8.20;;;5.10;;
66264;SDS011;53055;44.648;21.148;2023-05-10T04:13:03;8.18;;;5.20;;
66264;SDS011;53055;44.648;21.148;2023-05-10T04:15:29;8.40;;;5.90;;
66264;SDS011;53055;44.648;21.148;2023-05-10T04:17:55;8.07;;;5.53;;
66264;SDS011;53055;44.648;21.148;2023-05-10T04:20:21;9.63;;;5.22;;
66264;SDS011;53055;44.648;21.148;2023-05-10T04:22:47;6.65;;;4.90;;
66264;SDS011;53055;44.648;21.148;2023-05-10T04:25:13;6.90;;;4.40;;
66264;SDS011;53055;44.648;21.148;2023-05-10T04:27:39;7.63;;;4.40;;
66264;SDS011;53055;44.648;21.148;2023-05-10T04:30:05;11.52;;;4.70;;
66264;SDS011;53055;44.648;21.148;2023-05-10T04:32:32;7.53;;;4.53;;
66264;SDS011;53055;44.648;21.148;2023-05-10T04:34:58;7.13;;;4.85;;
66264;SDS011;53055;44.648;21.148;2023-05-10T04:37:24;9.68;;;5.03;;
66264;SDS011;53055;44.648;21.148;2023-05-10T04:39:50;8.23;;;4.55;;
66264;SDS011;53055;44.648;21.148;2023-05-10T04:42:16;23.92;;;5.72;;
66264;SDS011;53055;44.648;21.148;2023-05-10T04:44:42;8.75;;;4.85;;
66264;SDS011;53055;44.648;21.148;2023-05-10T04:47:08;7.53;;;4.80;;
66264;SDS011;53055;44.648;21.148;2023-05-10T04:49:34;10.20;;;4.43;;
66264;SDS011;53055;44.648;21.148;2023-05-10T04:52:00;9.55;;;4.85;;
66264;SDS011;53055;44.648;21.148;2023-05-10T04:54:26;7.03;;;4.95;;
66264;SDS011;53055;44.648;21.148;2023-05-10T04:56:52;8.23;;;4.75;;
66264;SDS011;53055;44.648;21.148;2023-05-10T04:59:18;7.25;;;4.95;;
66264;SDS011;53055;44.648;21.148;2023-05-10T05:01:44;7.72;;;4.70;;
66264;SDS011;53055;44.648;21.148;2023-05-10T05:04:10;9.82;;;6.15;;
66264;SDS011;53055;44.648;21.148;2023-05-10T05:06:36;7.53;;;5.30;;
66264;SDS011;53055;44.648;21.148;2023-05-10T05:09:02;8.05;;;5.72;;
66264;SDS011;53055;44.648;21.148;2023-05-10T05:11:28;7.60;;;5.68;;
66264;SDS011;53055;44.648;21.148;2023-05-10T05:13:54;8.45;;;5.28;;
66264;SDS011;53055;44.648;21.148;2023-05-10T05:16:20;8.07;;;5.80;;
66264;SDS011;53055;44.648;21.148;2023-05-10T05:18:46;8.15;;;5.75;;
66264;SDS011;53055;44.648;21.148;2023-05-10T05:21:13;8.50;;;5.80;;
66264;SDS011;53055;44.648;21.148;2023-05-10T05:23:40;9.35;;;6.75;;
66264;SDS011;53055;44.648;21.148;2023-05-10T05:26:06;8.80;;;6.30;;
66264;SDS011;53055;44.648;21.148;2023-05-10T05:28:32;10.05;;;6.22;;
66264;SDS011;53055;44.648;21.148;2023-05-10T05:31:02;8.68;;;6.00;;
66264;SDS011;53055;44.648;21.148;2023-05-10T05:33:28;8.65;;;6.00;;
66264;SDS011;53055;44.648;21.148;2023-05-10T05:35:54;9.02;;;6.80;;
66264;SDS011;53055;44.648;21.148;2023-05-10T05:38:20;9.45;;;7.28;;
66264;SDS011;53055;44.648;21.148;2023-05-10T05:40:46;9.18;;;7.10;;
66264;SDS011;53055;44.648;21.148;2023-05-10T05:43:12;10.43;;;8.20;;
66264;SDS011;53055;44.648;21.148;2023-05-10T05:45:38;10.40;;;7.10;;
66264;SDS011;53055;44.648;21.148;2023-05-10T05:48:04;11.40;;;9.02;;
66264;SDS011;53055;44.648;21.148;2023-05-10T05:50:30;10.55;;;9.43;;
66264;SDS011;53055;44.648;21.148;2023-05-10T05:52:56;11.57;;;7.43;;
66264;SDS011;53055;44.648;21.148;2023-05-10T05:55:22;10.45;;;8.07;;
66264;SDS011;53055;44.648;21.148;2023-05-10T05:57:49;9.82;;;7.95;;
66264;SDS011;53055;44.648;21.148;2023-05-10T06:00:15;9.73;;;7.78;;
66264;SDS011;53055;44.648;21.148;2023-05-10T06:02:42;11.38;;;8.38;;
66264;SDS011;53055;44.648;21.148;2023-05-10T06:05:08;12.52;;;8.23;;
66264;SDS011;53055;44.648;21.148;2023-05-10T06:07:34;10.63;;;8.07;;
66264;SDS011;53055;44.648;21.148;2023-05-10T06:10:00;11.25;;;8.40;;
66264;SDS011;53055;44.648;21.148;2023-05-10T06:12:27;12.60;;;10.27;;
66264;SDS011;53055;44.648;21.148;2023-05-10T06:14:53;13.02;;;9.63;;
66264;SDS011;53055;44.648;21.148;2023-05-10T06:17:19;11.30;;;9.88;;
66264;SDS011;53055;44.648;21.148;2023-05-10T06:19:46;12.85;;;10.00;;
66264;SDS011;53055;44.648;21.148;2023-05-10T06:22:12;11.15;;;8.82;;
66264;SDS011;53055;44.648;21.148;2023-05-10T06:24:38;11.65;;;9.55;;
66264;SDS011;53055;44.648;21.148;2023-05-10T06:27:05;11.32;;;8.50;;
66264;SDS011;53055;44.648;21.148;2023-05-10T06:29:31;11.77;;;9.57;;
66264;SDS011;53055;44.648;21.148;2023-05-10T06:31:57;11.52;;;9.93;;
66264;SDS011;53055;44.648;21.148;2023-05-10T06:34:23;13.82;;;9.40;;
66264;SDS011;53055;44.648;21.148;2023-05-10T06:36:49;12.77;;;9.52;;
66264;SDS011;53055;44.648;21.148;2023-05-10T06:39:16;11.10;;;7.50;;
66264;SDS011;53055;44.648;21.148;2023-05-10T06:41:42;11.68;;;9.35;;
66264;SDS011;53055;44.648;21.148;2023-05-10T06:44:08;10.70;;;8.68;;
66264;SDS011;53055;44.648;21.148;2023-05-10T06:46:34;11.70;;;8.32;;
66264;SDS011;53055;44.648;21.148;2023-05-10T06:49:01;10.70;;;8.23;;
66264;SDS011;53055;44.648;21.148;2023-05-10T06:51:27;11.27;;;8.02;;
66264;SDS011;53055;44.648;21.148;2023-05-10T06:53:53;11.48;;;8.23;;
66264;SDS011;53055;44.648;21.148;2023-05-10T06:56:19;10.13;;;7.60;;
66264;SDS011;53055;44.648;21.148;2023-05-10T06:58:47;10.77;;;7.38;;
66264;SDS011;53055;44.648;21.148;2023-05-10T07:01:13;10.98;;;7.68;;
66264;SDS011;53055;44.648;21.148;2023-05-10T07:03:39;9.77;;;6.72;;
66264;SDS011;53055;44.648;21.148;2023-05-10T07:06:05;11.77;;;7.50;;
66264;SDS011;53055;44.648;21.148;2023-05-10T07:08:32;11.27;;;6.75;;
66264;SDS011;53055;44.648;21.148;2023-05-10T07:11:05;8.93;;;6.72;;
66264;SDS011;53055;44.648;21.148;2023-05-10T07:13:37;9.68;;;8.07;;
66264;SDS011;53055;44.648;21.148;2023-05-10T07:16:06;7.63;;;5.85;;
66264;SDS011;53055;44.648;21.148;2023-05-10T07:18:32;9.63;;;5.90;;
66264;SDS011;53055;44.648;21.148;2023-05-10T07:20:58;9.68;;;5.97;;
66264;SDS011;53055;44.648;21.148;2023-05-10T07:23:24;9.57;;;5.90;;
66264;SDS011;53055;44.648;21.148;2023-05-10T07:25:51;10.18;;;6.15;;
66264;SDS011;53055;44.648;21.148;2023-05-10T07:28:17;7.90;;;4.95;;
66264;SDS011;53055;44.648;21.148;2023-05-10T07:30:43;10.13;;;5.88;;
66264;SDS011;53055;44.648;21.148;2023-05-10T07:33:10;8.73;;;5.35;;
66264;SDS011;53055;44.648;21.148;2023-05-10T07:35:36;9.38;;;4.80;;
66264;SDS011;53055;44.648;21.148;2023-05-10T07:38:02;8.15;;;5.20;;
66264;SDS011;53055;44.648;21.148;2023-05-10T07:40:28;7.57;;;4.13;;
66264;SDS011;53055;44.648;21.148;2023-05-10T07:42:55;7.90;;;4.85;;
66264;SDS011;53055;44.648;21.148;2023-05-10T07:45:21;8.45;;;4.60;;
66264;SDS011;53055;44.648;21.148;2023-05-10T07:47:48;8.95;;;5.35;;
66264;SDS011;53055;44.648;21.148;2023-05-10T07:50:14;7.35;;;4.90;;
66264;SDS011;53055;44.648;21.148;2023-05-10T07:52:40;7.88;;;4.68;;
66264;SDS011;53055;44.648;21.148;2023-05-10T07:55:06;7.78;;;4.35;;
66264;SDS011;53055;44.648;21.148;2023-05-10T07:57:33;7.90;;;4.15;;
66264;SDS011;53055;44.648;21.148;2023-05-10T07:59:59;7.65;;;3.65;;
66264;SDS011;53055;44.648;21.148;2023-05-10T08:02:25;7.28;;;3.75;;
66264;SDS011;53055;44.648;21.148;2023-05-10T08:04:51;9.85;;;3.75;;
66264;SDS011;53055;44.648;21.148;2023-05-10T08:07:17;8.90;;;4.18;;
66264;SDS011;53055;44.648;21.148;2023-05-10T08:09:44;7.65;;;4.00;;
66264;SDS011;53055;44.648;21.148;2023-05-10T08:12:09;8.32;;;4.20;;
66264;SDS011;53055;44.648;21.148;2023-05-10T08:14:36;9.70;;;3.90;;
66264;SDS011;53055;44.648;21.148;2023-05-10T08:17:02;9.57;;;3.70;;
66264;SDS011;53055;44.648;21.148;2023-05-10T08:19:28;7.45;;;4.18;;
66264;SDS011;53055;44.648;21.148;2023-05-10T08:21:54;8.18;;;3.83;;
66264;SDS011;53055;44.648;21.148;2023-05-10T08:24:21;8.10;;;4.00;;
66264;SDS011;53055;44.648;21.148;2023-05-10T08:26:47;6.53;;;3.70;;
66264;SDS011;53055;44.648;21.148;2023-05-10T08:29:14;7.28;;;3.45;;
66264;SDS011;53055;44.648;21.148;2023-05-10T08:31:40;7.07;;;3.60;;
66264;SDS011;53055;44.648;21.148;2023-05-10T08:34:06;7.40;;;3.28;;
66264;SDS011;53055;44.648;21.148;2023-05-10T08:36:32;7.68;;;3.15;;
66264;SDS011;53055;44.648;21.148;2023-05-10T08:38:59;8.38;;;3.60;;
66264;SDS011;53055;44.648;21.148;2023-05-10T08:41:25;6.45;;;3.70;;
66264;SDS011;53055;44.648;21.148;2023-05-10T08:43:54;9.98;;;3.78;;
66264;SDS011;53055;44.648;21.148;2023-05-10T08:46:21;6.63;;;2.95;;
66264;SDS011;53055;44.648;21.148;2023-05-10T08:48:48;6.07;;;2.92;;
66264;SDS011;53055;44.648;21.148;2023-05-10T08:51:17;7.72;;;2.97;;
66264;SDS011;53055;44.648;21.148;2023-05-10T08:53:44;7.38;;;3.25;;
66264;SDS011;53055;44.648;21.148;2023-05-10T08:56:10;11.32;;;3.28;;
66264;SDS011;53055;44.648;21.148;2023-05-10T08:58:37;8.65;;;3.55;;
66264;SDS011;53055;44.648;21.148;2023-05-10T09:01:03;9.32;;;3.50;;
66264;SDS011;53055;44.648;21.148;2023-05-10T09:03:29;5.63;;;3.15;;
66264;SDS011;53055;44.648;21.148;2023-05-10T09:05:56;6.57;;;3.03;;
66264;SDS011;53055;44.648;21.148;2023-05-10T09:08:25;9.57;;;3.05;;
66264;SDS011;53055;44.648;21.148;2023-05-10T09:10:52;8.77;;;3.33;;
66264;SDS011;53055;44.648;21.148;2023-05-10T09:13:18;7.03;;;3.00;;
66264;SDS011;53055;44.648;21.148;2023-05-10T09:15:45;7.85;;;2.80;;
66264;SDS011;53055;44.648;21.148;2023-05-10T09:18:11;6.55;;;3.10;;
66264;SDS011;53055;44.648;21.148;2023-05-10T09:20:37;6.97;;;3.22;;
66264;SDS011;53055;44.648;21.148;2023-05-10T09:23:03;7.72;;;3.40;;
66264;SDS011;53055;44.648;21.148;2023-05-10T09:25:30;6.93;;;3.45;;
66264;SDS011;53055;44.648;21.148;2023-05-10T09:27:58;7.43;;;3.72;;
66264;SDS011;53055;44.648;21.148;2023-05-10T09:30:28;6.63;;;3.30;;
66264;SDS011;53055;44.648;21.148;2023-05-10T09:32:55;9.52;;;3.70;;
66264;SDS011;53055;44.648;21.148;2023-05-10T09:35:22;8.57;;;3.30;;
66264;SDS011;53055;44.648;21.148;2023-05-10T09:37:49;6.10;;;3.20;;
66264;SDS011;53055;44.648;21.148;2023-05-10T09:40:16;10.70;;;4.18;;
66264;SDS011;53055;44.648;21.148;2023-05-10T09:42:43;6.40;;;3.38;;
66264;SDS011;53055;44.648;21.148;2023-05-10T09:45:16;7.57;;;3.30;;
66264;SDS011;53055;44.648;21.148;2023-05-10T09:47:42;6.57;;;2.92;;
66264;SDS011;53055;44.648;21.148;2023-05-10T09:50:08;6.07;;;3.05;;
66264;SDS011;53055;44.648;21.148;2023-05-10T09:52:48;8.40;;;2.88;;
66264;SDS011;53055;44.648;21.148;2023-05-10T09:55:15;6.82;;;2.97;;
66264;SDS011;53055;44.648;21.148;2023-05-10T09:57:41;7.45;;;2.80;;
66264;SDS011;53055;44.648;21.148;2023-05-10T10:00:08;5.57;;;3.05;;
66264;SDS011;53055;44.648;21.148;2023-05-10T10:02:37;8.10;;;4.22;;
66264;SDS011;53055;44.648;21.148;2023-05-10T10:05:05;9.20;;;3.55;;
66264;SDS011;53055;44.648;21.148;2023-05-10T10:07:32;10.25;;;2.97;;
66264;SDS011;53055;44.648;21.148;2023-05-10T10:09:58;9.02;;;4.22;;
66264;SDS011;53055;44.648;21.148;2023-05-10T10:12:25;8.68;;;3.53;;
66264;SDS011;53055;44.648;21.148;2023-05-10T10:14:51;6.63;;;3.30;;
66264;SDS011;53055;44.648;21.148;2023-05-10T10:17:18;6.55;;;3.40;;
66264;SDS011;53055;44.648;21.148;2023-05-10T10:19:45;7.75;;;3.30;;
66264;SDS011;53055;44.648;21.148;2023-05-10T10:22:11;7.68;;;3.10;;
66264;SDS011;53055;44.648;21.148;2023-05-10T10:24:38;9.48;;;3.00;;
66264;SDS011;53055;44.648;21.148;2023-05-10T10:29:59;7.18;;;3.20;;
66264;SDS011;53055;44.648;21.148;2023-05-10T10:32:30;7.72;;;2.80;;
66264;SDS011;53055;44.648;21.148;2023-05-10T10:34:58;7.18;;;3.08;;
66264;SDS011;53055;44.648;21.148;2023-05-10T10:37:40;9.23;;;3.95;;
66264;SDS011;53055;44.648;21.148;2023-05-10T10:40:40;8.82;;;3.50;;
66264;SDS011;53055;44.648;21.148;2023-05-10T10:45:44;7.78;;;4.03;;
66264;SDS011;53055;44.648;21.148;2023-05-10T10:48:31;7.70;;;3.08;;
66264;SDS011;53055;44.648;21.148;2023-05-10T10:50:57;7.30;;;3.30;;
66264;SDS011;53055;44.648;21.148;2023-05-10T10:53:25;6.22;;;3.20;;
66264;SDS011;53055;44.648;21.148;2023-05-10T10:55:56;8.18;;;2.65;;
66264;SDS011;53055;44.648;21.148;2023-05-10T10:58:28;7.10;;;2.90;;
66264;SDS011;53055;44.648;21.148;2023-05-10T11:01:11;6.93;;;2.95;;
66264;SDS011;53055;44.648;21.148;2023-05-10T11:03:38;7.22;;;3.00;;
66264;SDS011;53055;44.648;21.148;2023-05-10T11:06:04;8.13;;;2.83;;
66264;SDS011;53055;44.648;21.148;2023-05-10T11:08:34;7.72;;;3.30;;
66264;SDS011;53055;44.648;21.148;2023-05-10T11:15:58;9.63;;;2.70;;
66264;SDS011;53055;44.648;21.148;2023-05-10T11:18:27;5.93;;;2.50;;
66264;SDS011;53055;44.648;21.148;2023-05-10T11:20:58;7.10;;;2.33;;
66264;SDS011;53055;44.648;21.148;2023-05-10T11:26:07;6.25;;;2.40;;
66264;SDS011;53055;44.648;21.148;2023-05-10T11:31:08;5.80;;;2.42;;
66264;SDS011;53055;44.648;21.148;2023-05-10T11:33:44;8.57;;;2.50;;
66264;SDS011;53055;44.648;21.148;2023-05-10T11:36:14;8.63;;;2.35;;
66264;SDS011;53055;44.648;21.148;2023-05-10T11:38:40;7.60;;;2.75;;
66264;SDS011;53055;44.648;21.148;2023-05-10T11:41:10;6.65;;;2.40;;
66264;SDS011;53055;44.648;21.148;2023-05-10T11:43:39;8.15;;;2.30;;
66264;SDS011;53055;44.648;21.148;2023-05-10T11:46:10;5.05;;;2.10;;
66264;SDS011;53055;44.648;21.148;2023-05-10T11:48:37;6.70;;;2.20;;
66264;SDS011;53055;44.648;21.148;2023-05-10T11:51:04;5.50;;;2.70;;
66264;SDS011;53055;44.648;21.148;2023-05-10T11:53:31;5.78;;;2.10;;
66264;SDS011;53055;44.648;21.148;2023-05-10T11:56:07;6.80;;;2.53;;
66264;SDS011;53055;44.648;21.148;2023-05-10T11:58:33;5.05;;;1.77;;
66264;SDS011;53055;44.648;21.148;2023-05-10T12:01:00;7.45;;;2.42;;
66264;SDS011;53055;44.648;21.148;2023-05-10T12:03:27;7.07;;;2.33;;
66264;SDS011;53055;44.648;21.148;2023-05-10T12:05:53;5.18;;;1.73;;
66264;SDS011;53055;44.648;21.148;2023-05-10T12:08:21;6.20;;;2.17;;
66264;SDS011;53055;44.648;21.148;2023-05-10T12:10:47;7.78;;;2.75;;
66264;SDS011;53055;44.648;21.148;2023-05-10T12:13:13;5.78;;;2.20;;
66264;SDS011;53055;44.648;21.148;2023-05-10T12:15:40;6.13;;;2.10;;
66264;SDS011;53055;44.648;21.148;2023-05-10T12:18:08;6.18;;;2.30;;
66264;SDS011;53055;44.648;21.148;2023-05-10T12:20:35;6.00;;;2.20;;
66264;SDS011;53055;44.648;21.148;2023-05-10T12:23:01;6.35;;;2.10;;
66264;SDS011;53055;44.648;21.148;2023-05-10T12:25:38;5.93;;;2.47;;
66264;SDS011;53055;44.648;21.148;2023-05-10T12:28:05;7.00;;;2.33;;
66264;SDS011;53055;44.648;21.148;2023-05-10T12:30:32;5.18;;;2.00;;
66264;SDS011;53055;44.648;21.148;2023-05-10T12:33:02;5.38;;;2.17;;
66264;SDS011;53055;44.648;21.148;2023-05-10T12:35:32;4.57;;;2.15;;
66264;SDS011;53055;44.648;21.148;2023-05-10T12:37:58;7.90;;;2.50;;
66264;SDS011;53055;44.648;21.148;2023-05-10T12:40:24;5.15;;;1.98;;
66264;SDS011;53055;44.648;21.148;2023-05-10T12:42:50;5.35;;;2.28;;
66264;SDS011;53055;44.648;21.148;2023-05-10T12:45:17;7.00;;;2.30;;
66264;SDS011;53055;44.648;21.148;2023-05-10T12:47:43;6.07;;;2.50;;
66264;SDS011;53055;44.648;21.148;2023-05-10T12:50:09;5.50;;;2.00;;
66264;SDS011;53055;44.648;21.148;2023-05-10T12:52:35;5.32;;;2.20;;
66264;SDS011;53055;44.648;21.148;2023-05-10T12:55:02;6.82;;;1.80;;
66264;SDS011;53055;44.648;21.148;2023-05-10T12:57:28;5.25;;;2.17;;
66264;SDS011;53055;44.648;21.148;2023-05-10T12:59:54;4.72;;;1.83;;
66264;SDS011;53055;44.648;21.148;2023-05-10T13:02:20;6.38;;;2.28;;
66264;SDS011;53055;44.648;21.148;2023-05-10T13:04:48;8.88;;;3.13;;
66264;SDS011;53055;44.648;21.148;2023-05-10T13:07:14;6.93;;;3.10;;
66264;SDS011;53055;44.648;21.148;2023-05-10T13:09:40;7.13;;;3.22;;
66264;SDS011;53055;44.648;21.148;2023-05-10T13:12:06;11.45;;;2.40;;
66264;SDS011;53055;44.648;21.148;2023-05-10T13:14:32;7.30;;;2.60;;
66264;SDS011;53055;44.648;21.148;2023-05-10T13:16:58;5.35;;;2.53;;
66264;SDS011;53055;44.648;21.148;2023-05-10T13:19:25;6.53;;;2.45;;
66264;SDS011;53055;44.648;21.148;2023-05-10T13:21:51;8.57;;;2.83;;
66264;SDS011;53055;44.648;21.148;2023-05-10T13:24:17;6.93;;;2.70;;
66264;SDS011;53055;44.648;21.148;2023-05-10T13:26:44;6.80;;;2.67;;
66264;SDS011;53055;44.648;21.148;2023-05-10T13:29:10;4.53;;;1.90;;
66264;SDS011;53055;44.648;21.148;2023-05-10T13:31:36;6.55;;;1.90;;
66264;SDS011;53055;44.648;21.148;2023-05-10T13:34:03;6.65;;;2.85;;
66264;SDS011;53055;44.648;21.148;2023-05-10T13:36:30;7.13;;;3.55;;
66264;SDS011;53055;44.648;21.148;2023-05-10T13:38:56;6.93;;;3.70;;
66264;SDS011;53055;44.648;21.148;2023-05-10T13:41:22;6.68;;;2.80;;
66264;SDS011;53055;44.648;21.148;2023-05-10T13:43:48;6.57;;;3.03;;
66264;SDS011;53055;44.648;21.148;2023-05-10T13:46:14;7.22;;;2.75;;
66264;SDS011;53055;44.648;21.148;2023-05-10T13:48:40;7.20;;;2.75;;
66264;SDS011;53055;44.648;21.148;2023-05-10T13:51:06;7.07;;;2.67;;
66264;SDS011;53055;44.648;21.148;2023-05-10T13:53:32;7.72;;;2.85;;
66264;SDS011;53055;44.648;21.148;2023-05-10T13:55:58;7.97;;;3.95;;
66264;SDS011;53055;44.648;21.148;2023-05-10T13:58:25;6.10;;;3.47;;
66264;SDS011;53055;44.648;21.148;2023-05-10T14:00:51;6.78;;;2.55;;
66264;SDS011;53055;44.648;21.148;2023-05-10T14:03:17;7.00;;;2.47;;
66264;SDS011;53055;44.648;21.148;2023-05-10T14:05:43;7.03;;;2.25;;
66264;SDS011;53055;44.648;21.148;2023-05-10T14:08:10;6.75;;;4.13;;
66264;SDS011;53055;44.648;21.148;2023-05-10T14:10:38;7.25;;;3.10;;
66264;SDS011;53055;44.648;21.148;2023-05-10T14:13:04;5.43;;;3.17;;
66264;SDS011;53055;44.648;21.148;2023-05-10T14:15:31;10.48;;;4.38;;
66264;SDS011;53055;44.648;21.148;2023-05-10T14:17:57;8.90;;;4.30;;
66264;SDS011;53055;44.648;21.148;2023-05-10T14:20:23;8.35;;;2.70;;
66264;SDS011;53055;44.648;21.148;2023-05-10T14:22:49;6.30;;;2.50;;
66264;SDS011;53055;44.648;21.148;2023-05-10T14:25:15;5.28;;;2.13;;
66264;SDS011;53055;44.648;21.148;2023-05-10T14:27:41;7.53;;;2.17;;
66264;SDS011;53055;44.648;21.148;2023-05-10T14:30:07;8.23;;;2.63;;
66264;SDS011;53055;44.648;21.148;2023-05-10T14:32:33;6.95;;;4.07;;
66264;SDS011;53055;44.648;21.148;2023-05-10T14:35:01;9.45;;;3.38;;
66264;SDS011;53055;44.648;21.148;2023-05-10T14:37:27;6.63;;;2.65;;
66264;SDS011;53055;44.648;21.148;2023-05-10T14:39:53;9.68;;;3.58;;
66264;SDS011;53055;44.648;21.148;2023-05-10T14:42:19;6.25;;;3.45;;
66264;SDS011;53055;44.648;21.148;2023-05-10T14:44:46;6.85;;;3.50;;
66264;SDS011;53055;44.648;21.148;2023-05-10T14:47:12;8.10;;;2.42;;
66264;SDS011;53055;44.648;21.148;2023-05-10T14:49:38;9.57;;;4.40;;
66264;SDS011;53055;44.648;21.148;2023-05-10T14:52:04;6.15;;;2.60;;
66264;SDS011;53055;44.648;21.148;2023-05-10T14:54:30;6.00;;;2.38;;
66264;SDS011;53055;44.648;21.148;2023-05-10T14:56:58;6.72;;;3.55;;
66264;SDS011;53055;44.648;21.148;2023-05-10T14:59:25;8.48;;;4.00;;
66264;SDS011;53055;44.648;21.148;2023-05-10T15:01:51;9.63;;;2.97;;